Time;durP1;ratioP1;P1;durP2;ratioP2;P2;SDS_P1;SDS_P2;PMS_P1;PMS_P2;Temp;Humidity;BMP_temperature;BMP_pressure;BME280_temperature;BME280_humidity;BME280_pressure;Samples;Min_cycle;Max_cycle;Signal;HPM_P1;HPM_P2
2021/01/25 00:00:13;;;;;;;31.95;19.13;;;7.50;83.00;;;;;;5095739;28;20063;-45
2021/01/25 00:02:39;;;;;;;32.58;17.25;;;7.50;83.70;;;;;;5095761;28;20020;-46
2021/01/25 00:05:07;;;;;;;46.78;24.85;;;7.60;83.80;;;;;;5095610;28;20035;-45
2021/01/25 00:07:33;;;;;;;117.07;53.25;;;7.60;83.90;;;;;;5095974;28;20012;-46
2021/01/25 00:09:59;;;;;;;66.28;28.13;;;7.70;84.00;;;;;;5095293;28;20031;-45
2021/01/25 00:12:26;;;;;;;55.17;24.67;;;7.70;83.70;;;;;;5096169;28;20027;-45
2021/01/25 00:14:51;;;;;;;58.05;25.40;;;7.70;83.60;;;;;;5094929;28;20023;-46
2021/01/25 00:17:17;;;;;;;48.53;22.55;;;7.80;83.80;;;;;;5089082;28;20024;-48
2021/01/25 00:19:43;;;;;;;30.98;16.20;;;7.80;83.80;;;;;;5083114;28;20031;-48
2021/01/25 00:22:09;;;;;;;29.40;16.25;;;7.80;83.90;;;;;;5094998;28;20074;-45
2021/01/25 00:24:34;;;;;;;20.73;13.75;;;7.90;84.20;;;;;;5095133;28;20349;-49
2021/01/25 00:27:00;;;;;;;26.42;16.77;;;7.90;84.40;;;;;;5092441;28;20030;-45
2021/01/25 00:29:26;;;;;;;19.00;12.45;;;7.90;84.40;;;;;;5087044;28;20027;-48
2021/01/25 00:31:54;;;;;;;22.38;15.25;;;8.00;84.60;;;;;;5083652;28;20123;-46
2021/01/25 00:34:20;;;;;;;20.67;12.27;;;8.00;84.60;;;;;;5077748;28;20025;-47
2021/01/25 00:36:46;;;;;;;17.55;12.18;;;8.10;84.60;;;;;;5084076;28;20033;-48
2021/01/25 00:39:12;;;;;;;18.10;11.00;;;8.10;84.60;;;;;;5075576;28;20130;-50
2021/01/25 00:41:37;;;;;;;22.40;13.50;;;8.10;84.60;;;;;;5081279;28;20322;-45
2021/01/25 00:44:03;;;;;;;20.15;12.82;;;8.10;84.70;;;;;;5093682;28;20074;-47
2021/01/25 00:46:29;;;;;;;20.75;12.23;;;8.20;84.70;;;;;;5085660;28;20376;-46
2021/01/25 00:48:55;;;;;;;19.23;12.30;;;8.20;84.70;;;;;;5082625;28;20484;-46
2021/01/25 00:51:20;;;;;;;23.73;13.48;;;8.20;84.50;;;;;;5086323;28;20029;-45
2021/01/25 00:53:46;;;;;;;24.35;15.25;;;8.20;83.90;;;;;;5081366;28;20051;-50
2021/01/25 00:56:12;;;;;;;20.42;13.63;;;8.20;83.30;;;;;;5094045;28;20032;-45
2021/01/25 00:58:39;;;;;;;19.52;14.63;;;8.20;82.70;;;;;;5093921;28;20020;-49
2021/01/25 01:01:05;;;;;;;15.80;12.30;;;8.20;82.20;;;;;;5093617;28;20038;-45
2021/01/25 01:03:31;;;;;;;17.65;13.20;;;8.10;82.00;;;;;;5094204;28;20114;-45
2021/01/25 01:05:56;;;;;;;15.02;11.95;;;8.10;81.90;;;;;;5094549;28;20489;-44
2021/01/25 01:08:22;;;;;;;23.23;15.48;;;8.10;82.10;;;;;;5093963;28;20024;-48
2021/01/25 01:10:48;;;;;;;23.67;15.30;;;8.00;82.50;;;;;;5093659;28;20090;-46
2021/01/25 01:13:13;;;;;;;22.38;14.48;;;8.00;82.70;;;;;;5087746;28;20422;-46
2021/01/25 01:15:39;;;;;;;23.15;14.60;;;8.00;82.80;;;;;;5082730;28;20029;-45
2021/01/25 01:18:05;;;;;;;24.63;14.60;;;8.00;83.00;;;;;;5074950;28;20508;-47
2021/01/25 01:20:31;;;;;;;22.35;14.85;;;8.00;82.90;;;;;;5073366;28;20066;-46
2021/01/25 01:22:57;;;;;;;21.17;14.40;;;8.00;82.50;;;;;;5072433;28;20048;-45
2021/01/25 01:25:23;;;;;;;18.98;14.23;;;8.00;82.20;;;;;;5083521;28;20040;-47
2021/01/25 01:27:48;;;;;;;18.50;13.68;;;8.00;81.70;;;;;;5097981;28;20099;-44
2021/01/25 01:30:14;;;;;;;16.92;12.40;;;7.90;81.10;;;;;;5097646;28;20035;-45
2021/01/25 01:32:40;;;;;;;18.63;12.73;;;7.90;80.90;;;;;;5097369;28;20024;-47
2021/01/25 01:35:07;;;;;;;22.02;15.25;;;7.80;80.80;;;;;;5096539;28;20027;-47
2021/01/25 01:37:33;;;;;;;74.32;33.53;;;7.80;80.80;;;;;;5096922;28;20415;-46
2021/01/25 01:40:00;;;;;;;86.65;38.95;;;7.70;81.60;;;;;;5096197;28;20064;-45
2021/01/25 01:42:25;;;;;;;102.38;42.35;;;7.70;82.80;;;;;;5096538;28;20360;-44
2021/01/25 01:44:51;;;;;;;76.78;34.72;;;7.70;83.60;;;;;;5095873;28;20036;-45
2021/01/25 01:47:20;;;;;;;84.80;38.80;;;7.70;83.60;;;;;;5098194;28;20031;-46
2021/01/25 01:49:46;;;;;;;110.38;47.97;;;7.70;83.40;;;;;;5098053;28;20338;-45
2021/01/25 01:52:12;;;;;;;95.20;43.35;;;7.80;84.40;;;;;;5097931;28;20447;-46
2021/01/25 01:54:40;;;;;;;89.78;42.25;;;7.80;84.90;;;;;;5097457;28;20048;-47
2021/01/25 01:57:05;;;;;;;88.57;45.92;;;7.80;85.20;;;;;;5099013;28;20533;-44
2021/01/25 01:59:31;;;;;;;77.20;40.60;;;7.90;85.50;;;;;;5097591;28;20101;-47
2021/01/25 02:01:57;;;;;;;84.25;42.20;;;7.90;85.80;;;;;;5093362;28;20024;-44
2021/01/25 02:04:22;;;;;;;61.83;35.95;;;8.00;85.90;;;;;;5094376;28;20152;-46
2021/01/25 02:06:50;;;;;;;55.17;32.63;;;8.10;86.00;;;;;;5096682;28;20031;-45
2021/01/25 02:09:16;;;;;;;63.05;36.22;;;8.10;86.20;;;;;;5096620;28;20032;-46
2021/01/25 02:11:42;;;;;;;51.10;33.28;;;8.10;86.00;;;;;;5097214;28;20417;-44
2021/01/25 02:14:09;;;;;;;40.00;26.02;;;8.20;86.10;;;;;;5097321;28;20024;-44
2021/01/25 02:16:40;;;;;;;45.85;27.73;;;8.20;86.10;;;;;;5096540;28;20039;-46
2021/01/25 02:19:11;;;;;;;38.67;25.90;;;8.20;86.20;;;;;;5101774;28;20428;-46
2021/01/25 02:21:50;;;;;;;36.33;24.27;;;8.20;86.20;;;;;;5095868;28;20133;-45
2021/01/25 02:24:34;;;;;;;39.58;26.52;;;8.20;86.10;;;;;;5095253;28;20047;-45
2021/01/25 02:27:27;;;;;;;44.17;26.35;;;8.20;86.30;;;;;;5094608;28;20031;-45
2021/01/25 02:29:53;;;;;;;51.97;31.45;;;8.20;86.10;;;;;;5093364;28;20333;-45
2021/01/25 02:32:20;;;;;;;36.75;24.35;;;8.20;86.30;;;;;;5096235;28;20024;-47
2021/01/25 02:34:46;;;;;;;40.75;25.02;;;8.20;86.30;;;;;;5095417;28;20429;-45
2021/01/25 02:37:13;;;;;;;41.72;25.92;;;8.20;86.50;;;;;;5095179;28;20397;-46
2021/01/25 02:39:39;;;;;;;38.72;25.17;;;8.30;86.60;;;;;;5093550;28;20028;-45
2021/01/25 02:42:06;;;;;;;27.35;18.38;;;8.30;86.60;;;;;;5094544;28;20032;-49
2021/01/25 02:44:35;;;;;;;27.27;17.38;;;8.30;86.50;;;;;;5093854;28;20032;-49
2021/01/25 02:47:01;;;;;;;19.92;13.40;;;8.30;86.40;;;;;;5094137;28;20402;-50
2021/01/25 02:49:26;;;;;;;26.73;18.35;;;8.30;86.40;;;;;;5093918;28;20461;-50
2021/01/25 02:51:52;;;;;;;25.77;18.05;;;8.30;86.50;;;;;;5094232;28;20054;-49
2021/01/25 02:54:19;;;;;;;30.48;20.85;;;8.30;86.60;;;;;;5093747;28;20055;-51
2021/01/25 02:56:47;;;;;;;21.25;12.88;;;8.40;86.80;;;;;;5088759;28;20043;-49
2021/01/25 02:59:13;;;;;;;25.15;14.93;;;8.40;86.70;;;;;;5090976;28;20024;-49
2021/01/25 03:01:40;;;;;;;20.67;14.07;;;8.40;86.60;;;;;;5094773;28;20097;-49
2021/01/25 03:04:06;;;;;;;20.70;13.40;;;8.40;86.60;;;;;;5095514;28;20059;-52
2021/01/25 03:06:33;;;;;;;20.50;14.00;;;8.40;86.60;;;;;;5095171;28;20330;-49
2021/01/25 03:08:59;;;;;;;23.73;14.25;;;8.40;86.50;;;;;;5094048;28;20126;-49
2021/01/25 03:11:24;;;;;;;31.27;19.42;;;8.40;86.30;;;;;;5095412;28;20106;-50
2021/01/25 03:13:50;;;;;;;40.38;24.20;;;8.40;86.30;;;;;;5095488;28;20016;-49
2021/01/25 03:16:17;;;;;;;35.38;21.23;;;8.40;86.20;;;;;;5095526;28;20061;-49
2021/01/25 03:18:43;;;;;;;37.33;19.88;;;8.40;86.20;;;;;;5095276;28;20016;-47
2021/01/25 03:21:08;;;;;;;36.10;21.80;;;8.30;86.20;;;;;;5094584;28;20078;-45
2021/01/25 03:23:34;;;;;;;40.42;25.08;;;8.40;86.30;;;;;;5095323;28;20481;-47
2021/01/25 03:26:00;;;;;;;38.78;23.83;;;8.30;86.20;;;;;;5094974;28;20549;-46
2021/01/25 03:28:26;;;;;;;46.15;27.63;;;8.40;86.30;;;;;;5095092;28;20384;-45
2021/01/25 03:30:52;;;;;;;50.45;31.20;;;8.40;86.50;;;;;;5094858;28;20036;-46
2021/01/25 03:33:18;;;;;;;45.97;28.10;;;8.40;86.50;;;;;;5095809;28;20061;-47
2021/01/25 03:35:43;;;;;;;47.63;28.42;;;8.40;86.40;;;;;;5095623;28;20060;-45
2021/01/25 03:38:09;;;;;;;43.92;25.23;;;8.40;86.20;;;;;;5096463;28;20024;-52
2021/01/25 03:40:35;;;;;;;45.10;27.42;;;8.40;86.20;;;;;;5096327;28;20043;-50
2021/01/25 03:43:01;;;;;;;45.80;26.33;;;8.40;86.20;;;;;;5088827;28;20020;-52
2021/01/25 03:45:27;;;;;;;44.33;27.52;;;8.40;86.20;;;;;;5094069;28;20024;-49
2021/01/25 03:47:52;;;;;;;43.65;28.67;;;8.40;86.20;;;;;;5094726;28;20099;-49
2021/01/25 03:50:18;;;;;;;48.08;29.90;;;8.40;86.10;;;;;;5093723;28;20028;-48
2021/01/25 03:52:44;;;;;;;54.97;30.70;;;8.40;86.00;;;;;;5094804;28;20356;-53
2021/01/25 03:55:11;;;;;;;48.03;27.15;;;8.40;85.90;;;;;;5092838;28;20050;-50
2021/01/25 03:57:37;;;;;;;45.47;29.80;;;8.40;85.70;;;;;;5094254;28;20027;-49
2021/01/25 04:00:07;;;;;;;52.35;28.38;;;8.40;85.70;;;;;;5094442;28;20016;-49
2021/01/25 04:02:33;;;;;;;49.92;28.70;;;8.40;85.70;;;;;;5095190;28;20028;-45
2021/01/25 04:04:59;;;;;;;40.80;25.98;;;8.40;85.60;;;;;;5087451;28;20468;-52
2021/01/25 04:07:25;;;;;;;55.05;27.48;;;8.40;85.60;;;;;;5075629;28;20120;-50
2021/01/25 04:09:51;;;;;;;39.92;22.40;;;8.40;85.50;;;;;;5091807;28;20127;-49
2021/01/25 04:12:16;;;;;;;41.70;25.83;;;8.40;85.50;;;;;;5086064;28;20058;-51
2021/01/25 04:14:42;;;;;;;44.03;26.27;;;8.40;85.40;;;;;;5073577;28;20024;-51
2021/01/25 04:17:08;;;;;;;44.70;26.90;;;8.40;85.30;;;;;;5074846;28;20116;-49
2021/01/25 04:19:34;;;;;;;49.70;29.70;;;8.40;85.20;;;;;;5073566;28;20422;-53
2021/01/25 04:22:00;;;;;;;41.30;26.27;;;8.40;85.00;;;;;;5073710;28;20072;-50
2021/01/25 04:24:26;;;;;;;43.40;25.42;;;8.40;84.80;;;;;;5074711;28;20072;-49
2021/01/25 04:26:51;;;;;;;43.30;27.35;;;8.40;84.70;;;;;;5073920;28;20029;-52
2021/01/25 04:29:17;;;;;;;48.63;30.15;;;8.40;84.70;;;;;;5074231;28;20032;-53
2021/01/25 04:31:43;;;;;;;45.08;25.25;;;8.30;84.70;;;;;;5074523;28;20064;-49
2021/01/25 04:34:09;;;;;;;40.15;23.58;;;8.30;84.70;;;;;;5074780;28;20028;-51
2021/01/25 04:36:34;;;;;;;36.60;21.48;;;8.30;84.80;;;;;;5074462;28;20078;-52
2021/01/25 04:39:01;;;;;;;36.03;21.15;;;8.30;84.80;;;;;;5073600;28;20082;-51
2021/01/25 04:41:28;;;;;;;31.23;17.58;;;8.30;84.80;;;;;;5073715;28;20020;-50
2021/01/25 04:43:55;;;;;;;32.13;20.50;;;8.40;84.90;;;;;;5073911;28;20115;-49
2021/01/25 04:46:24;;;;;;;35.55;19.67;;;8.40;84.80;;;;;;5075340;28;20480;-49
2021/01/25 04:48:50;;;;;;;37.63;24.35;;;8.40;84.80;;;;;;5089840;28;20027;-50
2021/01/25 04:51:16;;;;;;;36.45;20.92;;;8.40;84.60;;;;;;5095209;28;20422;-50
2021/01/25 04:53:44;;;;;;;37.63;21.35;;;8.40;84.80;;;;;;5090756;28;20153;-49
2021/01/25 04:56:10;;;;;;;37.85;20.95;;;8.40;84.70;;;;;;5075729;28;20067;-49
2021/01/25 04:58:36;;;;;;;37.70;21.35;;;8.40;84.50;;;;;;5083028;28;20052;-49
2021/01/25 05:01:02;;;;;;;35.70;20.02;;;8.50;84.40;;;;;;5096667;28;20124;-49
2021/01/25 05:03:29;;;;;;;35.88;19.75;;;8.50;84.30;;;;;;5099340;28;20027;-49
2021/01/25 05:05:55;;;;;;;28.67;18.55;;;8.50;84.30;;;;;;5098394;28;20051;-49
2021/01/25 05:08:21;;;;;;;36.13;21.13;;;8.50;84.10;;;;;;5117671;28;20035;-49
2021/01/25 05:10:47;;;;;;;31.85;19.13;;;8.50;83.90;;;;;;5106480;28;20032;-50
2021/01/25 05:13:23;;;;;;;37.33;21.40;;;8.50;83.90;;;;;;5078624;28;20024;-50
2021/01/25 05:15:51;;;;;;;39.20;21.92;;;8.50;83.80;;;;;;5101217;28;20047;-46
2021/01/25 05:18:22;;;;;;;43.70;27.20;;;8.50;83.80;;;;;;5116837;28;20020;-45
2021/01/25 05:20:53;;;;;;;45.53;24.10;;;8.50;83.80;;;;;;5116618;28;20441;-45
2021/01/25 05:23:19;;;;;;;38.83;22.83;;;8.50;83.70;;;;;;5077499;28;20103;-45
2021/01/25 05:25:45;;;;;;;31.75;20.67;;;8.50;83.80;;;;;;5076182;28;20411;-45
2021/01/25 05:28:15;;;;;;;44.20;23.85;;;8.50;83.80;;;;;;5078356;28;20028;-46
2021/01/25 05:30:41;;;;;;;40.90;24.23;;;8.50;83.90;;;;;;5078431;28;20492;-46
2021/01/25 05:33:06;;;;;;;41.15;24.83;;;8.50;83.80;;;;;;5085443;28;20021;-48
2021/01/25 05:35:33;;;;;;;46.47;26.00;;;8.50;83.40;;;;;;5076451;28;20032;-46
2021/01/25 05:38:03;;;;;;;44.28;25.40;;;8.50;83.40;;;;;;5098070;28;20035;-45
2021/01/25 05:40:31;;;;;;;47.45;26.85;;;8.50;83.40;;;;;;5096431;28;20028;-45
2021/01/25 05:42:57;;;;;;;39.63;22.92;;;8.50;83.30;;;;;;5098292;28;20406;-48
2021/01/25 05:45:26;;;;;;;35.97;18.85;;;8.50;83.40;;;;;;5096681;28;20047;-45
2021/01/25 05:47:58;;;;;;;42.08;24.70;;;8.50;83.30;;;;;;5084711;28;20024;-46
2021/01/25 05:50:28;;;;;;;37.35;21.40;;;8.50;83.20;;;;;;5095564;28;20126;-47
2021/01/25 05:52:55;;;;;;;41.58;23.52;;;8.50;83.10;;;;;;5094476;28;20046;-46
2021/01/25 05:55:23;;;;;;;33.80;21.40;;;8.40;83.00;;;;;;5087291;28;20028;-51
2021/01/25 05:57:49;;;;;;;34.05;20.50;;;8.40;82.90;;;;;;5088495;28;20060;-46
2021/01/25 06:00:15;;;;;;;39.63;22.23;;;8.40;82.80;;;;;;5082085;28;20063;-49
2021/01/25 06:02:49;;;;;;;39.85;21.80;;;8.40;82.70;;;;;;5084093;28;20098;-47
2021/01/25 06:05:36;;;;;;;47.08;24.27;;;8.40;82.60;;;;;;5090061;28;20043;-53
2021/01/25 06:08:07;;;;;;;54.15;26.75;;;8.40;82.60;;;;;;5088029;28;20486;-52
2021/01/25 06:10:43;;;;;;;58.53;30.05;;;8.40;82.80;;;;;;5081289;28;20020;-49
2021/01/25 06:13:15;;;;;;;99.53;45.05;;;8.40;82.90;;;;;;5087797;28;20101;-46
2021/01/25 06:15:42;;;;;;;104.13;45.33;;;8.40;83.20;;;;;;5096492;28;20024;-51
2021/01/25 06:18:07;;;;;;;85.32;36.88;;;8.30;82.70;;;;;;5091200;28;20059;-49
2021/01/25 06:20:35;;;;;;;56.05;28.10;;;8.30;82.40;;;;;;5089653;28;20029;-48
2021/01/25 06:23:05;;;;;;;42.85;24.08;;;8.40;82.50;;;;;;5093210;28;20071;-47
2021/01/25 06:25:31;;;;;;;38.55;23.35;;;8.30;82.30;;;;;;5077207;28;20342;-53
2021/01/25 06:27:58;;;;;;;45.13;25.33;;;8.30;82.00;;;;;;5078826;28;20020;-49
2021/01/25 06:30:26;;;;;;;46.03;25.00;;;8.30;82.10;;;;;;5089120;28;20033;-51
2021/01/25 06:32:54;;;;;;;37.83;23.58;;;8.20;82.10;;;;;;5058514;28;20047;-47
2021/01/25 06:35:21;;;;;;;46.97;26.85;;;8.20;82.10;;;;;;5078929;28;20036;-52
2021/01/25 06:37:54;;;;;;;38.03;21.08;;;8.20;82.30;;;;;;5061793;28;20107;-53
2021/01/25 06:40:24;;;;;;;35.42;20.42;;;8.20;82.40;;;;;;5083424;28;20097;-52
2021/01/25 06:42:50;;;;;;;35.92;19.88;;;8.20;82.70;;;;;;5094575;28;20093;-49
2021/01/25 06:45:16;;;;;;;34.42;20.27;;;8.20;82.70;;;;;;5093599;28;20445;-50
2021/01/25 06:47:42;;;;;;;50.40;23.50;;;8.30;82.80;;;;;;5080143;28;20016;-50
2021/01/25 06:50:08;;;;;;;52.63;26.05;;;8.30;82.80;;;;;;5072494;28;20047;-54
2021/01/25 06:52:38;;;;;;;58.38;27.33;;;8.30;82.70;;;;;;5074366;28;20089;-50
2021/01/25 06:55:09;;;;;;;64.95;30.48;;;8.30;82.40;;;;;;5072516;28;20480;-51
2021/01/25 06:57:38;;;;;;;82.85;33.67;;;8.30;82.30;;;;;;5076471;28;20025;-49
2021/01/25 07:00:08;;;;;;;85.25;36.95;;;8.30;82.60;;;;;;5075769;28;20028;-49
2021/01/25 07:02:33;;;;;;;102.47;44.30;;;8.30;82.80;;;;;;5075387;28;20074;-50
2021/01/25 07:04:59;;;;;;;105.90;43.75;;;8.30;83.00;;;;;;5074442;28;20033;-50
2021/01/25 07:07:30;;;;;;;103.07;43.83;;;8.40;83.30;;;;;;5073750;28;20099;-51
2021/01/25 07:09:59;;;;;;;;;;;8.40;83.30;;;;;;5073705;28;20020;-50
2021/01/25 07:12:26;;;;;;;116.07;49.55;;;8.40;83.40;;;;;;5073542;28;19916;-49
2021/01/25 07:14:53;;;;;;;119.85;47.47;;;8.50;83.30;;;;;;5073018;28;20082;-53
2021/01/25 07:17:19;;;;;;;86.30;38.75;;;8.50;83.20;;;;;;5085229;28;20114;-49
2021/01/25 07:19:45;;;;;;;75.80;34.13;;;8.50;83.30;;;;;;5105045;28;20045;-49
2021/01/25 07:22:11;;;;;;;60.00;26.42;;;8.60;83.40;;;;;;5093322;28;20630;-49
2021/01/25 07:24:38;;;;;;;52.63;26.98;;;8.60;83.30;;;;;;5095113;28;20036;-51
2021/01/25 07:27:05;;;;;;;51.42;27.58;;;8.70;83.40;;;;;;5098213;28;20028;-52
2021/01/25 07:29:31;;;;;;;53.88;24.30;;;8.70;83.60;;;;;;5094161;28;20048;-49
2021/01/25 07:31:59;;;;;;;39.53;21.77;;;8.80;83.60;;;;;;5094468;28;20126;-51
2021/01/25 07:34:29;;;;;;;33.47;19.13;;;8.90;83.60;;;;;;5097777;28;20441;-50
2021/01/25 07:36:55;;;;;;;;;;;9.00;83.60;;;;;;5092856;28;20031;-53
2021/01/25 07:39:21;;;;;;;32.08;18.25;;;9.00;83.70;;;;;;5089781;28;19908;-52
2021/01/25 07:41:47;;;;;;;34.88;18.75;;;9.10;83.50;;;;;;5095606;28;20019;-53
2021/01/25 07:44:14;;;;;;;38.80;21.10;;;9.20;83.30;;;;;;5098224;28;20039;-51
2021/01/25 07:46:43;;;;;;;41.30;21.15;;;9.20;83.20;;;;;;5100624;28;20032;-49
2021/01/25 07:49:09;;;;;;;38.40;21.77;;;9.30;83.10;;;;;;5095238;28;20053;-52
2021/01/25 07:51:37;;;;;;;37.40;21.35;;;9.30;82.90;;;;;;5091372;28;20040;-52
2021/01/25 07:54:04;;;;;;;30.10;19.98;;;9.40;82.90;;;;;;5094539;28;20107;-52
2021/01/25 07:56:30;;;;;;;29.55;17.00;;;9.50;82.60;;;;;;5091614;28;20038;-46
2021/01/25 07:59:06;;;;;;;26.75;18.85;;;9.50;82.40;;;;;;5095362;28;20023;-46
2021/01/25 08:01:37;;;;;;;38.67;17.60;;;9.60;82.20;;;;;;5095611;28;20032;-46
2021/01/25 08:04:05;;;;;;;;;;;9.60;82.10;;;;;;5096201;28;20046;-48
2021/01/25 08:06:35;;;;;;;35.38;18.30;;;9.60;82.30;;;;;;5094880;28;20202;-46
2021/01/25 08:09:06;;;;;;;38.30;19.17;;;9.70;82.20;;;;;;5096177;28;20024;-47
2021/01/25 08:11:35;;;;;;;36.08;19.50;;;9.70;82.10;;;;;;5091986;28;20319;-52
2021/01/25 08:14:27;;;;;;;34.75;21.30;;;9.70;82.00;;;;;;5095589;28;20077;-51
2021/01/25 08:17:03;;;;;;;38.20;19.98;;;9.80;81.90;;;;;;5091208;28;20036;-46
2021/01/25 08:19:55;;;;;;;31.98;17.65;;;9.80;81.90;;;;;;5099606;28;20456;-52
2021/01/25 08:22:24;;;;;;;32.58;18.80;;;9.90;81.70;;;;;;5101104;28;20055;-49
2021/01/25 08:24:55;;;;;;;39.08;19.65;;;10.00;81.10;;;;;;5092631;28;20028;-54
2021/01/25 08:27:21;;;;;;;42.55;19.10;;;9.90;79.90;;;;;;5094252;28;20418;-52
2021/01/25 08:29:50;;;;;;;39.10;17.05;;;10.00;78.60;;;;;;5087999;28;20032;-53
2021/01/25 08:32:26;;;;;;;27.15;14.30;;;9.90;77.30;;;;;;5088435;28;20119;-51
2021/01/25 08:35:05;;;;;;;30.67;16.25;;;9.90;77.00;;;;;;5086794;28;20107;-51
2021/01/25 08:37:32;;;;;;;88.40;55.97;;;9.70;76.80;;;;;;5089768;28;20449;-49
2021/01/25 08:40:09;;;;;;;44.50;25.95;;;9.70;76.80;;;;;;5077851;28;20431;-51
2021/01/25 08:42:35;;;;;;;70.68;41.30;;;9.60;76.50;;;;;;5078890;28;20029;-52
2021/01/25 08:45:10;;;;;;;51.17;32.38;;;9.50;76.40;;;;;;5078265;28;20044;-52
2021/01/25 08:47:38;;;;;;;28.30;15.32;;;9.50;76.30;;;;;;5078234;28;20027;-50
2021/01/25 08:50:16;;;;;;;24.00;15.73;;;9.40;76.10;;;;;;5078248;28;20469;-50
2021/01/25 08:52:43;;;;;;;30.50;20.02;;;9.30;75.80;;;;;;5077805;28;20406;-50
2021/01/25 08:55:23;;;;;;;25.13;14.48;;;9.20;76.00;;;;;;5080155;28;20032;-50
2021/01/25 08:57:49;;;;;;;24.27;14.48;;;9.20;75.80;;;;;;5090134;28;20027;-50
2021/01/25 09:00:17;;;;;;;24.88;14.73;;;9.10;76.00;;;;;;5098325;28;20376;-49
2021/01/25 09:02:44;;;;;;;21.90;14.15;;;9.00;76.00;;;;;;5105425;28;20028;-50
2021/01/25 09:05:12;;;;;;;24.85;14.80;;;9.00;76.40;;;;;;5098548;28;20059;-49
2021/01/25 09:07:38;;;;;;;27.95;15.40;;;8.90;76.40;;;;;;5109753;28;20022;-50
2021/01/25 09:10:05;;;;;;;25.90;15.48;;;8.90;75.80;;;;;;5114969;28;20020;-49
2021/01/25 09:12:31;;;;;;;22.65;14.25;;;8.80;75.50;;;;;;5099099;28;20337;-49
2021/01/25 09:14:57;;;;;;;104.28;64.45;;;8.80;75.30;;;;;;5099132;28;20138;-52
2021/01/25 09:17:24;;;;;;;81.10;56.65;;;8.70;75.10;;;;;;5098875;28;20032;-50
2021/01/25 09:19:50;;;;;;;87.75;54.15;;;8.70;75.20;;;;;;5091056;28;20422;-50
2021/01/25 09:22:16;;;;;;;113.90;63.45;;;8.60;75.10;;;;;;5095541;28;20376;-50
2021/01/25 09:24:43;;;;;;;184.07;102.32;;;8.60;75.20;;;;;;5096865;28;20475;-52
2021/01/25 09:27:09;;;;;;;89.43;49.90;;;8.50;75.20;;;;;;5098254;28;20032;-48
2021/01/25 09:29:37;;;;;;;85.57;45.25;;;8.50;75.80;;;;;;5096500;28;20023;-50
2021/01/25 09:32:04;;;;;;;63.88;37.80;;;8.40;75.30;;;;;;5080140;28;20032;-49
2021/01/25 09:34:30;;;;;;;48.80;30.17;;;8.40;75.60;;;;;;5099383;28;20030;-49
2021/01/25 09:36:56;;;;;;;50.65;29.52;;;8.40;76.00;;;;;;5093302;28;20020;-52
2021/01/25 09:39:21;;;;;;;35.55;20.40;;;8.40;76.30;;;;;;5095670;28;20052;-50
2021/01/25 09:41:47;;;;;;;35.10;20.50;;;8.40;76.20;;;;;;5097003;28;20032;-51
2021/01/25 09:44:17;;;;;;;48.00;31.98;;;8.40;76.00;;;;;;5094397;28;20043;-52
2021/01/25 09:46:43;;;;;;;51.78;33.58;;;8.40;76.30;;;;;;5080489;28;20029;-51
2021/01/25 09:49:10;;;;;;;43.45;27.17;;;8.40;76.40;;;;;;5109860;28;20034;-52
2021/01/25 09:51:37;;;;;;;37.30;22.73;;;8.40;76.40;;;;;;5095148;28;20088;-51
2021/01/25 09:54:03;;;;;;;40.45;23.98;;;8.30;76.30;;;;;;5092210;28;20025;-51
2021/01/25 09:56:29;;;;;;;32.17;19.40;;;8.30;76.30;;;;;;5097351;28;20085;-51
2021/01/25 09:58:55;;;;;;;33.20;21.25;;;8.30;76.10;;;;;;5112022;28;20118;-54
2021/01/25 10:01:22;;;;;;;41.13;24.95;;;8.30;76.00;;;;;;5093817;28;20042;-49
2021/01/25 10:03:48;;;;;;;33.20;22.65;;;8.30;75.90;;;;;;5094447;28;20024;-51
2021/01/25 10:06:13;;;;;;;47.08;27.27;;;8.20;75.70;;;;;;5099076;28;20180;-49
2021/01/25 10:08:39;;;;;;;32.05;19.17;;;8.20;75.50;;;;;;5107520;28;20024;-51
2021/01/25 10:11:06;;;;;;;27.23;16.55;;;8.20;75.30;;;;;;5087753;28;20581;-50
2021/01/25 10:13:32;;;;;;;26.90;16.75;;;8.10;75.20;;;;;;5111250;28;20015;-52
2021/01/25 10:15:58;;;;;;;31.00;19.33;;;8.10;75.40;;;;;;5117261;28;20122;-53
2021/01/25 10:18:23;;;;;;;22.02;14.18;;;8.00;75.30;;;;;;5099717;28;20124;-54
2021/01/25 10:20:49;;;;;;;22.90;14.32;;;8.00;75.40;;;;;;5076650;28;20410;-52
2021/01/25 10:23:16;;;;;;;21.23;14.05;;;8.00;75.50;;;;;;5079437;28;20024;-54
2021/01/25 10:25:41;;;;;;;22.67;14.75;;;7.90;75.70;;;;;;5096594;28;20051;-54
2021/01/25 10:28:07;;;;;;;23.50;14.48;;;7.90;76.00;;;;;;5087592;28;20388;-54
2021/01/25 10:30:33;;;;;;;22.33;14.30;;;7.90;76.10;;;;;;5095578;28;20024;-52
2021/01/25 10:32:59;;;;;;;23.58;15.20;;;7.90;76.30;;;;;;5086980;28;20024;-53
2021/01/25 10:35:26;;;;;;;23.15;14.73;;;7.90;76.40;;;;;;5104604;28;20040;-52
2021/01/25 10:37:52;;;;;;;21.65;14.73;;;7.90;76.60;;;;;;5087634;28;20337;-51
2021/01/25 10:40:19;;;;;;;23.67;15.57;;;7.90;76.80;;;;;;5105153;28;20073;-52
2021/01/25 10:42:46;;;;;;;26.63;16.30;;;7.90;76.80;;;;;;5087180;28;20388;-51
2021/01/25 10:45:12;;;;;;;25.10;17.25;;;8.00;77.20;;;;;;5080015;28;20131;-50
2021/01/25 10:47:38;;;;;;;24.92;17.38;;;8.00;77.50;;;;;;5097159;28;20020;-49
2021/01/25 10:50:07;;;;;;;28.27;17.00;;;8.10;77.40;;;;;;5100680;28;20020;-53
2021/01/25 10:52:33;;;;;;;30.27;17.55;;;8.10;77.30;;;;;;5087123;28;20056;-50
2021/01/25 10:54:59;;;;;;;27.35;17.65;;;8.10;77.50;;;;;;5101298;28;20034;-49
2021/01/25 10:57:25;;;;;;;23.02;16.02;;;8.20;77.70;;;;;;5104275;28;20433;-51
2021/01/25 10:59:51;;;;;;;27.48;17.65;;;8.30;78.00;;;;;;5097489;28;20425;-49
2021/01/25 11:02:18;;;;;;;31.75;18.25;;;8.30;78.10;;;;;;5088402;28;20107;-52
2021/01/25 11:04:45;;;;;;;30.95;19.50;;;8.40;78.20;;;;;;5090161;28;20389;-50
2021/01/25 11:07:11;;;;;;;34.63;21.73;;;8.40;78.00;;;;;;5095229;28;20119;-51
2021/01/25 11:09:37;;;;;;;42.58;27.25;;;8.50;77.90;;;;;;5107647;28;20106;-53
2021/01/25 11:12:03;;;;;;;76.32;51.15;;;8.60;77.90;;;;;;5112933;28;20039;-51
2021/01/25 11:14:29;;;;;;;67.90;47.25;;;8.60;77.80;;;;;;5105750;28;20028;-51
2021/01/25 11:16:54;;;;;;;51.60;35.40;;;8.70;77.30;;;;;;5095079;28;20035;-52
2021/01/25 11:19:25;;;;;;;34.65;22.63;;;8.70;76.80;;;;;;5111786;27;20434;-50
2021/01/25 11:21:51;;;;;;;35.97;23.75;;;8.70;76.10;;;;;;5110237;28;20032;-50
2021/01/25 11:24:17;;;;;;;29.58;19.52;;;8.70;75.60;;;;;;5091673;28;20029;-51
2021/01/25 11:26:42;;;;;;;35.60;21.90;;;8.70;75.30;;;;;;5091385;28;20110;-54
2021/01/25 11:29:10;;;;;;;32.00;20.73;;;8.60;75.40;;;;;;5092359;28;20040;-51
2021/01/25 11:31:36;;;;;;;33.53;21.30;;;8.50;75.50;;;;;;5091336;28;20035;-50
2021/01/25 11:34:03;;;;;;;35.72;20.52;;;8.50;75.70;;;;;;5091395;28;20480;-52
2021/01/25 11:36:29;;;;;;;39.08;24.15;;;8.40;75.90;;;;;;5073613;28;20032;-51
2021/01/25 11:38:56;;;;;;;31.42;20.27;;;8.40;76.00;;;;;;5090702;28;20070;-50
2021/01/25 11:41:23;;;;;;;34.90;20.63;;;8.30;76.00;;;;;;5087260;28;20035;-50
2021/01/25 11:43:49;;;;;;;35.40;20.30;;;8.30;76.00;;;;;;5085195;28;20115;-50
2021/01/25 11:46:16;;;;;;;31.58;20.77;;;8.20;76.10;;;;;;5090154;28;20587;-52
2021/01/25 11:48:43;;;;;;;31.33;18.80;;;8.20;76.50;;;;;;5091112;28;20120;-52
2021/01/25 11:51:08;;;;;;;28.95;17.98;;;8.20;76.90;;;;;;5091606;28;20414;-52
2021/01/25 11:53:35;;;;;;;38.42;22.10;;;8.20;77.10;;;;;;5105473;28;20024;-46
2021/01/25 11:56:01;;;;;;;34.67;21.75;;;8.20;77.30;;;;;;5092715;28;20021;-49
2021/01/25 11:58:27;;;;;;;38.75;21.08;;;8.20;77.60;;;;;;5092218;28;20047;-52
2021/01/25 12:00:53;;;;;;;36.78;22.35;;;8.20;77.90;;;;;;5091434;28;20021;-52
2021/01/25 12:03:19;;;;;;;37.22;22.08;;;8.20;78.00;;;;;;5090971;28;20449;-46
2021/01/25 12:05:45;;;;;;;36.03;21.80;;;8.20;78.20;;;;;;5089535;28;20020;-49
2021/01/25 12:08:11;;;;;;;31.15;19.00;;;8.20;78.30;;;;;;5085455;28;20020;-48
2021/01/25 12:10:43;;;;;;;37.85;21.83;;;8.20;78.40;;;;;;5084883;28;20024;-49
2021/01/25 12:13:09;;;;;;;44.75;25.38;;;8.20;78.60;;;;;;5089796;28;20384;-49
2021/01/25 12:15:35;;;;;;;36.38;21.65;;;8.30;78.60;;;;;;5090480;28;20020;-50
2021/01/25 12:18:01;;;;;;;34.50;21.05;;;8.30;78.60;;;;;;5089355;28;20403;-48
2021/01/25 12:20:26;;;;;;;39.70;24.52;;;8.30;78.40;;;;;;5082025;28;20498;-49
2021/01/25 12:22:52;;;;;;;37.78;21.73;;;8.30;78.40;;;;;;5090007;28;20032;-49
2021/01/25 12:25:18;;;;;;;39.45;24.73;;;8.30;78.60;;;;;;5091819;28;20031;-53
2021/01/25 12:27:44;;;;;;;43.22;24.38;;;8.30;78.70;;;;;;5091826;28;20028;-48
2021/01/25 12:30:14;;;;;;;38.20;23.75;;;8.30;78.70;;;;;;5080738;28;20638;-47
2021/01/25 12:32:44;;;;;;;38.70;23.50;;;8.30;79.30;;;;;;5077892;28;20020;-47
2021/01/25 12:35:12;;;;;;;45.38;26.70;;;8.30;78.90;;;;;;5073792;28;20064;-50
2021/01/25 12:37:39;;;;;;;47.38;25.10;;;8.30;79.20;;;;;;5073103;28;20672;-46